createdAt,value
2019-03-18T00:03:53.882Z,2.33
2019-03-18T00:08:50.105Z,2.20
2019-03-18T00:13:45.799Z,1.93
2019-03-18T00:18:41.675Z,1.90
2019-03-18T00:23:37.359Z,2.00
2019-03-18T00:28:33.251Z,1.80
2019-03-18T00:33:28.945Z,2.17
2019-03-18T00:38:24.944Z,2.00
2019-03-18T00:43:22.043Z,2.13
2019-03-18T00:48:18.288Z,1.90
2019-03-18T00:53:13.969Z,1.80
2019-03-18T00:58:09.863Z,2.07
2019-03-18T01:03:05.530Z,2.17
2019-03-18T01:08:01.438Z,2.20
2019-03-18T01:12:57.200Z,2.20
2019-03-18T01:22:48.623Z,2.23
2019-03-18T01:27:44.587Z,2.57
2019-03-18T01:32:40.485Z,2.70
2019-03-18T01:37:36.141Z,2.50
2019-03-18T01:42:32.171Z,2.27
2019-03-18T01:47:28.554Z,2.50
2019-03-18T01:52:25.513Z,2.77
2019-03-18T01:57:21.189Z,2.50
2019-03-18T02:02:17.309Z,2.63
2019-03-18T02:07:12.985Z,2.57
2019-03-18T02:12:08.852Z,2.40
2019-03-18T02:17:04.536Z,2.17
2019-03-18T02:22:00.679Z,2.43
2019-03-18T02:26:56.627Z,2.40
2019-03-18T02:31:52.794Z,2.60
2019-03-18T02:36:48.569Z,2.00
2019-03-18T02:41:45.260Z,2.20
2019-03-18T02:46:41.033Z,2.00
2019-03-18T02:51:37.179Z,1.90
2019-03-18T02:56:32.854Z,2.40
2019-03-18T03:01:28.711Z,2.03
2019-03-18T03:06:24.437Z,1.83
2019-03-18T03:11:20.500Z,2.20
2019-03-18T03:16:26.179Z,2.13
2019-03-18T03:21:14.341Z,2.33
2019-03-18T03:26:10.287Z,2.00
2019-03-18T03:31:06.785Z,2.20
2019-03-18T03:36:02.819Z,2.17
2019-03-18T03:40:58.749Z,2.37
2019-03-18T03:45:54.565Z,2.17
2019-03-18T03:50:51.458Z,2.37
2019-03-18T03:55:47.136Z,2.13
2019-03-18T04:00:43.375Z,1.90
2019-03-18T04:05:39.069Z,2.03
2019-03-18T04:10:35.031Z,2.17
2019-03-18T04:15:30.826Z,2.30
2019-03-18T04:20:26.833Z,2.30
2019-03-18T04:25:22.533Z,3.00
2019-03-18T04:30:18.414Z,2.73
2019-03-18T04:35:14.097Z,2.43
2019-03-18T04:40:10.380Z,2.50
2019-03-18T04:45:07.846Z,2.40
2019-03-18T04:50:04.529Z,2.20
2019-03-18T04:55:00.345Z,2.60
2019-03-18T04:59:56.445Z,3.10
2019-03-18T05:04:52.118Z,2.47
2019-03-18T05:09:48.020Z,2.23
2019-03-18T05:14:43.714Z,1.93
2019-03-18T05:19:39.710Z,1.90
2019-03-18T05:24:35.407Z,2.27
2019-03-18T05:29:31.328Z,1.90
2019-03-18T05:34:27.026Z,1.93
2019-03-18T05:39:22.911Z,1.80
2019-03-18T05:44:19.201Z,1.70
2019-03-18T05:49:15.069Z,1.83
2019-03-18T05:54:10.817Z,1.80
2019-03-18T05:59:06.718Z,1.67
2019-03-18T06:04:02.394Z,1.90
2019-03-18T06:08:58.312Z,1.67
2019-03-18T06:13:56.386Z,1.50
2019-03-18T06:18:52.006Z,1.70
2019-03-18T06:23:47.706Z,1.67
2019-03-18T06:28:43.843Z,1.70
2019-03-18T06:33:39.535Z,2.93
2019-03-18T06:38:35.510Z,2.07
2019-03-18T06:43:31.196Z,1.80
2019-03-18T06:48:27.678Z,2.00
2019-03-18T06:53:23.348Z,1.70
2019-03-18T06:58:19.236Z,2.10
2019-03-18T07:03:14.933Z,1.70
2019-03-18T07:08:10.819Z,1.70
2019-03-18T07:13:06.545Z,1.60
2019-03-18T07:22:58.051Z,1.70
2019-03-18T07:27:53.742Z,1.90
2019-03-18T07:37:45.224Z,1.90
2019-03-18T07:42:41.265Z,1.83
2019-03-18T07:47:37.944Z,1.80
2019-03-18T07:52:33.890Z,1.57
2019-03-18T07:57:32.516Z,1.87
2019-03-18T08:02:27.616Z,1.80
2019-03-18T08:07:23.512Z,1.77
2019-03-18T08:12:19.177Z,1.60
2019-03-18T08:17:15.064Z,2.33
2019-03-18T08:22:10.729Z,1.80
2019-03-18T08:27:06.881Z,1.67
2019-03-18T08:32:02.579Z,1.87
2019-03-18T08:36:58.532Z,1.60
2019-03-18T08:41:54.290Z,1.50
2019-03-18T08:46:50.186Z,1.63
2019-03-18T08:51:46.237Z,1.67
2019-03-18T08:56:42.459Z,1.33
2019-03-18T09:01:38.122Z,1.30
2019-03-18T09:06:34.144Z,1.50
2019-03-18T09:11:29.823Z,1.77
2019-03-18T09:16:25.703Z,3.00
2019-03-18T09:21:21.633Z,2.70
2019-03-18T09:26:17.531Z,2.50
2019-03-18T09:31:13.511Z,1.97
2019-03-18T09:36:09.439Z,2.40
2019-03-18T09:41:05.235Z,2.33
2019-03-18T09:46:01.262Z,2.10
2019-03-18T09:50:57.181Z,1.80
2019-03-18T10:00:48.595Z,2.30
2019-03-18T10:05:44.485Z,3.20
2019-03-18T10:10:40.168Z,2.30
2019-03-18T10:15:36.275Z,2.53
2019-03-18T10:20:32.179Z,2.30
2019-03-18T10:25:27.860Z,2.20
2019-03-18T10:30:23.774Z,2.50
2019-03-18T10:35:20.113Z,3.00
2019-03-18T10:40:15.979Z,2.10
2019-03-18T10:45:12.304Z,2.00
2019-03-18T10:50:14.627Z,2.40
2019-03-18T10:55:10.409Z,2.17
2019-03-18T11:00:13.562Z,2.40
2019-03-18T11:05:09.493Z,1.93
2019-03-18T11:10:07.293Z,1.70
2019-03-18T11:15:04.667Z,1.90
2019-03-18T11:20:01.214Z,2.20
2019-03-18T11:24:56.983Z,2.10
2019-03-18T11:29:52.922Z,2.20
2019-03-18T11:34:48.594Z,2.13
2019-03-18T11:39:44.564Z,1.90
2019-03-18T11:44:40.239Z,1.83
2019-03-18T11:49:39.819Z,1.90
2019-03-18T11:54:34.035Z,1.70
2019-03-18T11:59:29.936Z,2.17
2019-03-18T12:04:25.739Z,2.20
2019-03-18T12:09:21.871Z,2.00
2019-03-18T12:14:17.545Z,2.40
2019-03-18T12:19:13.677Z,1.87
2019-03-18T12:24:09.360Z,1.70
2019-03-18T12:34:01.446Z,3.27
2019-03-18T12:38:57.131Z,1.77
2019-03-18T12:43:53.299Z,2.27
2019-03-18T12:48:49.226Z,2.30
2019-03-18T12:53:45.157Z,2.03
2019-03-18T12:58:41.051Z,2.80
2019-03-18T13:03:37.231Z,2.60
2019-03-18T13:08:32.902Z,2.80
2019-03-18T13:13:29.115Z,2.43
2019-03-18T13:18:24.923Z,2.43
2019-03-18T13:23:20.865Z,2.10
2019-03-18T13:28:17.828Z,3.67
2019-03-18T13:33:13.835Z,2.40
2019-03-18T13:38:09.586Z,2.57
2019-03-18T13:43:05.581Z,2.10
2019-03-18T13:48:01.245Z,2.20
2019-03-18T13:52:56.997Z,1.73
2019-03-18T13:57:53.107Z,2.40
2019-03-18T14:02:49.022Z,2.47
2019-03-18T14:07:44.850Z,2.57
2019-03-18T14:12:40.940Z,2.30
2019-03-18T14:17:36.697Z,1.70
2019-03-18T14:22:32.843Z,1.90
2019-03-18T14:27:28.532Z,1.53
2019-03-18T14:32:24.416Z,1.60
2019-03-18T14:37:20.082Z,1.60
2019-03-18T14:42:16.586Z,1.20
2019-03-18T14:47:12.271Z,1.13
2019-03-18T14:52:08.156Z,1.50
2019-03-18T14:57:03.842Z,1.57
2019-03-18T15:02:00.719Z,1.50
2019-03-18T15:06:56.410Z,1.60
2019-03-18T15:11:52.299Z,1.20
2019-03-18T15:16:48.015Z,1.40
2019-03-18T15:21:43.918Z,1.17
2019-03-18T15:26:39.617Z,1.10
2019-03-18T15:31:35.723Z,1.50
2019-03-18T15:36:31.859Z,1.53
2019-03-18T15:41:27.548Z,1.80
2019-03-18T15:46:23.427Z,1.63
2019-03-18T15:51:19.368Z,1.57
2019-03-18T15:56:15.304Z,1.60
2019-03-18T16:01:11.216Z,1.37
2019-03-18T16:06:07.099Z,1.20
2019-03-18T16:11:02.784Z,1.40
2019-03-18T16:15:58.932Z,1.73
2019-03-18T16:20:54.677Z,1.40
2019-03-18T16:25:50.597Z,1.50
2019-03-18T16:30:46.270Z,1.20
2019-03-18T16:35:42.169Z,0.80
2019-03-18T16:40:37.872Z,0.63
2019-03-18T16:45:34.018Z,0.60
2019-03-18T16:50:30.293Z,0.90
2019-03-18T16:55:26.237Z,1.30
2019-03-18T17:00:22.924Z,1.77
2019-03-18T17:05:19.036Z,1.90
2019-03-18T17:10:15.584Z,1.27
2019-03-18T17:15:13.209Z,2.17
2019-03-18T17:20:10.998Z,2.30
2019-03-18T17:25:08.092Z,4.43
2019-03-18T17:30:08.755Z,4.83
2019-03-18T17:35:05.429Z,3.30
2019-03-18T17:40:01.741Z,6.60
2019-03-18T17:44:57.415Z,5.67
2019-03-18T17:49:53.259Z,5.20
2019-03-18T17:54:48.977Z,3.90
2019-03-18T17:59:45.114Z,4.37
2019-03-18T18:04:40.990Z,4.97
2019-03-18T18:09:36.732Z,3.70
2019-03-18T18:14:32.445Z,2.87
2019-03-18T18:19:28.631Z,2.10
2019-03-18T18:24:24.389Z,2.20
2019-03-18T18:29:20.554Z,2.17
2019-03-18T18:34:16.331Z,3.23
2019-03-18T18:39:12.071Z,2.90
2019-03-18T18:44:07.986Z,2.70
2019-03-18T18:49:03.764Z,3.30
2019-03-18T18:53:59.435Z,2.80
2019-03-18T18:58:55.340Z,18.70
2019-03-18T19:03:51.359Z,5.30
2019-03-18T19:08:47.296Z,3.30
2019-03-18T19:13:43.503Z,2.20
2019-03-18T19:18:39.199Z,2.20
2019-03-18T19:23:37.869Z,2.43
2019-03-18T19:28:32.940Z,2.30
2019-03-18T19:33:28.889Z,2.50
2019-03-18T19:38:24.577Z,3.10
2019-03-18T19:43:20.462Z,2.73
2019-03-18T19:48:16.208Z,2.63
2019-03-18T19:53:12.549Z,3.80
2019-03-18T19:58:08.270Z,4.03
2019-03-18T20:03:04.380Z,6.43
2019-03-18T20:08:01.175Z,5.13
2019-03-18T20:12:57.804Z,6.10
2019-03-18T20:17:55.722Z,7.27
2019-03-18T20:22:51.917Z,5.97
2019-03-18T20:27:47.749Z,5.23
2019-03-18T20:32:43.788Z,5.63
2019-03-18T20:37:39.711Z,5.90
2019-03-18T20:42:35.710Z,7.63
2019-03-18T20:47:31.628Z,7.20
2019-03-18T20:52:27.695Z,7.03
2019-03-18T20:57:23.682Z,7.03
2019-03-18T21:02:19.462Z,8.63
2019-03-18T21:07:17.122Z,7.63
2019-03-18T21:12:13.157Z,7.87
2019-03-18T21:17:08.913Z,5.93
2019-03-18T21:22:05.137Z,5.30
2019-03-18T21:27:01.114Z,5.10
2019-03-18T21:31:56.781Z,5.77
2019-03-18T21:36:53.013Z,5.17
2019-03-18T21:41:48.707Z,5.40
2019-03-18T21:46:44.805Z,5.47
2019-03-18T21:51:40.747Z,5.80
2019-03-18T21:56:36.515Z,5.67
2019-03-18T22:01:32.327Z,5.97
2019-03-18T22:06:28.572Z,6.83
2019-03-18T22:11:25.188Z,6.23
2019-03-18T22:16:21.419Z,7.07
2019-03-18T22:21:17.367Z,6.90
2019-03-18T22:26:13.579Z,6.40
2019-03-18T22:31:09.256Z,6.80
2019-03-18T22:36:05.429Z,6.43
2019-03-18T22:41:01.201Z,6.43
2019-03-18T22:45:57.329Z,5.87
2019-03-18T22:50:53.033Z,5.90
2019-03-18T22:55:49.191Z,6.40
2019-03-18T23:00:46.632Z,6.00
2019-03-18T23:05:42.744Z,5.87
2019-03-18T23:10:38.727Z,5.23
2019-03-18T23:15:35.461Z,5.87
2019-03-18T23:20:31.525Z,5.47
2019-03-18T23:25:28.098Z,6.33
2019-03-18T23:30:23.782Z,8.40
2019-03-18T23:35:19.699Z,6.43
2019-03-18T23:40:15.491Z,6.13
2019-03-18T23:45:11.645Z,6.00
2019-03-18T23:50:09.236Z,5.80
2019-03-18T23:55:06.025Z,5.60
